sensor_id;sensor_type;location;lat;lon;timestamp;pressure;altitude;pressure_sealevel;temperature;humidity
2675;BME280;1347;42.122;24.746;2023-02-19T00:00:10;99739.56;;;12.69;46.92
2675;BME280;1347;42.122;24.746;2023-02-19T00:02:39;99745.50;;;12.74;46.74
2675;BME280;1347;42.122;24.746;2023-02-19T00:05:06;99736.88;;;12.76;46.63
2675;BME280;1347;42.122;24.746;2023-02-19T00:07:33;99743.19;;;12.76;46.96
2675;BME280;1347;42.122;24.746;2023-02-19T00:10:01;99734.50;;;12.71;46.72
2675;BME280;1347;42.122;24.746;2023-02-19T00:12:28;99725.75;;;12.62;46.87
2675;BME280;1347;42.122;24.746;2023-02-19T00:14:55;99731.25;;;12.62;46.95
2675;BME280;1347;42.122;24.746;2023-02-19T00:17:22;99723.00;;;12.62;47.47
2675;BME280;1347;42.122;24.746;2023-02-19T00:19:49;99728.41;;;12.54;47.24
2675;BME280;1347;42.122;24.746;2023-02-19T00:22:16;99721.38;;;12.57;47.48
2675;BME280;1347;42.122;24.746;2023-02-19T00:24:43;99715.03;;;12.53;47.53
2675;BME280;1347;42.122;24.746;2023-02-19T00:27:11;99732.38;;;12.57;47.57
2675;BME280;1347;42.122;24.746;2023-02-19T00:29:38;99714.50;;;12.37;48.09
2675;BME280;1347;42.122;24.746;2023-02-19T00:32:05;99720.00;;;12.37;47.96
2675;BME280;1347;42.122;24.746;2023-02-19T00:34:32;99707.00;;;12.34;47.80
2675;BME280;1347;42.122;24.746;2023-02-19T00:36:59;99711.56;;;12.23;48.12
2675;BME280;1347;42.122;24.746;2023-02-19T00:39:25;99704.09;;;12.20;48.30
2675;BME280;1347;42.122;24.746;2023-02-19T00:41:52;99706.84;;;12.20;48.35
2675;BME280;1347;42.122;24.746;2023-02-19T00:44:21;99695.31;;;12.07;48.88
2675;BME280;1347;42.122;24.746;2023-02-19T00:46:47;99691.72;;;12.03;48.98
2675;BME280;1347;42.122;24.746;2023-02-19T00:49:17;99688.47;;;11.94;48.83
2675;BME280;1347;42.122;24.746;2023-02-19T00:51:45;99685.72;;;11.90;49.48
2675;BME280;1347;42.122;24.746;2023-02-19T00:54:12;99686.88;;;11.89;49.02
2675;BME280;1347;42.122;24.746;2023-02-19T00:56:40;99676.56;;;11.83;48.96
2675;BME280;1347;42.122;24.746;2023-02-19T00:59:07;99676.19;;;11.81;49.23
2675;BME280;1347;42.122;24.746;2023-02-19T01:01:35;99684.78;;;11.79;49.39
2675;BME280;1347;42.122;24.746;2023-02-19T01:04:02;99679.25;;;11.49;50.53
2675;BME280;1347;42.122;24.746;2023-02-19T01:06:29;99679.50;;;11.40;50.88
2675;BME280;1347;42.122;24.746;2023-02-19T01:08:57;99676.81;;;11.44;50.45
2675;BME280;1347;42.122;24.746;2023-02-19T01:11:24;99677.84;;;11.32;51.30
2675;BME280;1347;42.122;24.746;2023-02-19T01:13:51;99675.06;;;11.29;51.00
2675;BME280;1347;42.122;24.746;2023-02-19T01:16:20;99671.00;;;11.19;51.62
2675;BME280;1347;42.122;24.746;2023-02-19T01:18:50;99671.81;;;10.97;52.04
2675;BME280;1347;42.122;24.746;2023-02-19T01:21:18;99666.44;;;11.04;51.75
2675;BME280;1347;42.122;24.746;2023-02-19T01:23:47;99671.38;;;10.46;54.04
2675;BME280;1347;42.122;24.746;2023-02-19T01:26:16;99677.63;;;10.69;53.01
2675;BME280;1347;42.122;24.746;2023-02-19T01:28:43;99682.75;;;10.48;53.81
2675;BME280;1347;42.122;24.746;2023-02-19T01:31:12;99677.25;;;10.25;54.94
2675;BME280;1347;42.122;24.746;2023-02-19T01:33:41;99684.22;;;10.22;54.73
2675;BME280;1347;42.122;24.746;2023-02-19T01:36:11;99686.81;;;10.35;54.45
2675;BME280;1347;42.122;24.746;2023-02-19T01:38:38;99687.59;;;10.35;54.37
2675;BME280;1347;42.122;24.746;2023-02-19T01:41:07;99682.72;;;10.25;54.83
2675;BME280;1347;42.122;24.746;2023-02-19T01:43:54;99675.75;;;10.27;54.33
2675;BME280;1347;42.122;24.746;2023-02-19T01:46:24;99670.31;;;10.31;54.05
2675;BME280;1347;42.122;24.746;2023-02-19T01:48:52;99673.59;;;10.40;53.87
2675;BME280;1347;42.122;24.746;2023-02-19T01:51:21;99676.88;;;10.49;53.47
2675;BME280;1347;42.122;24.746;2023-02-19T01:53:52;99672.50;;;10.45;53.89
2675;BME280;1347;42.122;24.746;2023-02-19T01:56:21;99665.09;;;10.45;53.35
2675;BME280;1347;42.122;24.746;2023-02-19T01:58:50;99651.81;;;10.47;53.61
2675;BME280;1347;42.122;24.746;2023-02-19T02:01:17;99655.75;;;10.50;53.45
2675;BME280;1347;42.122;24.746;2023-02-19T02:03:46;99655.72;;;10.46;54.28
2675;BME280;1347;42.122;24.746;2023-02-19T02:06:20;99645.34;;;10.36;54.33
2675;BME280;1347;42.122;24.746;2023-02-19T02:08:51;99652.41;;;10.37;53.87
2675;BME280;1347;42.122;24.746;2023-02-19T02:11:39;99654.56;;;10.47;53.45
2675;BME280;1347;42.122;24.746;2023-02-19T02:14:08;99657.06;;;10.56;53.36
2675;BME280;1347;42.122;24.746;2023-02-19T02:16:42;99663.44;;;10.63;53.15
2675;BME280;1347;42.122;24.746;2023-02-19T02:19:31;99668.91;;;10.63;53.21
2675;BME280;1347;42.122;24.746;2023-02-19T02:22:05;99665.03;;;10.64;52.97
2675;BME280;1347;42.122;24.746;2023-02-19T02:25:02;99668.50;;;10.61;53.19
2675;BME280;1347;42.122;24.746;2023-02-19T02:27:40;99669.34;;;10.65;53.26
2675;BME280;1347;42.122;24.746;2023-02-19T02:30:37;99653.63;;;10.62;53.41
2675;BME280;1347;42.122;24.746;2023-02-19T02:33:12;99665.88;;;10.68;52.99
2675;BME280;1347;42.122;24.746;2023-02-19T02:35:44;99675.28;;;10.67;52.93
2675;BME280;1347;42.122;24.746;2023-02-19T02:38:14;99686.84;;;10.57;53.35
2675;BME280;1347;42.122;24.746;2023-02-19T02:40:44;99684.03;;;10.54;53.63
2675;BME280;1347;42.122;24.746;2023-02-19T02:43:11;99682.16;;;10.58;53.51
2675;BME280;1347;42.122;24.746;2023-02-19T02:45:40;99688.44;;;10.58;53.17
2675;BME280;1347;42.122;24.746;2023-02-19T02:48:15;99685.25;;;10.56;52.93
2675;BME280;1347;42.122;24.746;2023-02-19T02:50:46;99676.97;;;10.53;53.02
2675;BME280;1347;42.122;24.746;2023-02-19T02:53:17;99674.53;;;10.48;53.24
2675;BME280;1347;42.122;24.746;2023-02-19T02:56:04;99672.88;;;10.43;53.55
2675;BME280;1347;42.122;24.746;2023-02-19T02:58:33;99668.88;;;10.37;53.57
2675;BME280;1347;42.122;24.746;2023-02-19T03:01:05;99682.59;;;10.41;53.70
2675;BME280;1347;42.122;24.746;2023-02-19T03:03:56;99697.91;;;10.42;53.68
2675;BME280;1347;42.122;24.746;2023-02-19T03:06:28;99696.66;;;10.39;53.47
2675;BME280;1347;42.122;24.746;2023-02-19T03:08:59;99706.44;;;10.37;53.90
2675;BME280;1347;42.122;24.746;2023-02-19T03:11:28;99706.72;;;10.31;53.80
2675;BME280;1347;42.122;24.746;2023-02-19T03:14:16;99703.53;;;10.29;53.86
2675;BME280;1347;42.122;24.746;2023-02-19T03:17:07;99717.09;;;10.22;54.40
2675;BME280;1347;42.122;24.746;2023-02-19T03:19:55;99714.00;;;10.05;54.70
2675;BME280;1347;42.122;24.746;2023-02-19T03:22:26;99706.50;;;10.02;54.92
2675;BME280;1347;42.122;24.746;2023-02-19T03:24:56;99700.94;;;9.98;54.87
2675;BME280;1347;42.122;24.746;2023-02-19T03:27:44;99716.75;;;10.05;54.88
2675;BME280;1347;42.122;24.746;2023-02-19T03:30:16;99710.97;;;10.10;54.45
2675;BME280;1347;42.122;24.746;2023-02-19T03:32:48;99718.53;;;10.16;54.21
2675;BME280;1347;42.122;24.746;2023-02-19T03:35:20;99720.91;;;10.18;54.19
2675;BME280;1347;42.122;24.746;2023-02-19T03:37:52;99717.75;;;10.16;54.19
2675;BME280;1347;42.122;24.746;2023-02-19T03:40:26;99716.94;;;10.15;54.27
2675;BME280;1347;42.122;24.746;2023-02-19T03:42:59;99715.88;;;10.20;54.00
2675;BME280;1347;42.122;24.746;2023-02-19T03:45:35;99723.47;;;10.26;54.13
2675;BME280;1347;42.122;24.746;2023-02-19T03:48:17;99711.13;;;10.36;53.48
2675;BME280;1347;42.122;24.746;2023-02-19T03:50:49;99716.00;;;10.46;53.43
2675;BME280;1347;42.122;24.746;2023-02-19T03:53:26;99721.25;;;10.55;53.04
2675;BME280;1347;42.122;24.746;2023-02-19T03:56:04;99725.56;;;10.56;52.92
2675;BME280;1347;42.122;24.746;2023-02-19T03:58:40;99726.13;;;10.65;52.63
2675;BME280;1347;42.122;24.746;2023-02-19T04:01:13;99732.09;;;10.70;52.48
2675;BME280;1347;42.122;24.746;2023-02-19T04:03:46;99719.88;;;10.87;52.14
2675;BME280;1347;42.122;24.746;2023-02-19T04:06:21;99731.72;;;10.95;51.91
2675;BME280;1347;42.122;24.746;2023-02-19T04:08:52;99725.63;;;11.05;51.40
2675;BME280;1347;42.122;24.746;2023-02-19T04:11:20;99722.72;;;11.21;50.82
2675;BME280;1347;42.122;24.746;2023-02-19T04:13:54;99726.81;;;11.30;50.71
2675;BME280;1347;42.122;24.746;2023-02-19T04:16:26;99730.09;;;11.39;50.64
2675;BME280;1347;42.122;24.746;2023-02-19T04:18:58;99745.34;;;11.37;50.23
2675;BME280;1347;42.122;24.746;2023-02-19T04:21:29;99752.44;;;11.38;50.54
2675;BME280;1347;42.122;24.746;2023-02-19T04:23:58;99762.53;;;11.34;50.44
2675;BME280;1347;42.122;24.746;2023-02-19T04:26:26;99756.63;;;11.32;50.37
2675;BME280;1347;42.122;24.746;2023-02-19T04:28:53;99775.41;;;11.30;50.41
2675;BME280;1347;42.122;24.746;2023-02-19T04:31:21;99774.22;;;11.27;50.78
2675;BME280;1347;42.122;24.746;2023-02-19T04:33:48;99775.78;;;11.28;50.33
2675;BME280;1347;42.122;24.746;2023-02-19T04:36:16;99776.16;;;11.27;50.72
2675;BME280;1347;42.122;24.746;2023-02-19T04:38:43;99778.22;;;11.33;50.23
2675;BME280;1347;42.122;24.746;2023-02-19T04:41:10;99776.25;;;11.34;50.58
2675;BME280;1347;42.122;24.746;2023-02-19T04:43:37;99778.66;;;11.35;50.29
2675;BME280;1347;42.122;24.746;2023-02-19T04:46:04;99777.00;;;11.31;50.27
2675;BME280;1347;42.122;24.746;2023-02-19T04:48:31;99787.97;;;11.31;50.64
2675;BME280;1347;42.122;24.746;2023-02-19T04:50:58;99786.38;;;11.30;50.63
2675;BME280;1347;42.122;24.746;2023-02-19T04:53:26;99784.50;;;11.34;50.20
2675;BME280;1347;42.122;24.746;2023-02-19T04:55:53;99780.59;;;11.35;50.38
2675;BME280;1347;42.122;24.746;2023-02-19T04:58:20;99792.00;;;11.37;50.19
2675;BME280;1347;42.122;24.746;2023-02-19T05:00:50;99790.84;;;11.38;50.14
2675;BME280;1347;42.122;24.746;2023-02-19T05:03:17;99799.88;;;11.38;50.15
2675;BME280;1347;42.122;24.746;2023-02-19T05:05:44;99806.63;;;11.44;50.15
2675;BME280;1347;42.122;24.746;2023-02-19T05:08:11;99806.25;;;11.46;50.24
2675;BME280;1347;42.122;24.746;2023-02-19T05:10:40;99805.47;;;11.46;50.08
2675;BME280;1347;42.122;24.746;2023-02-19T05:13:07;99797.97;;;11.42;50.31
2675;BME280;1347;42.122;24.746;2023-02-19T05:15:34;99805.31;;;11.35;50.42
2675;BME280;1347;42.122;24.746;2023-02-19T05:18:01;99798.66;;;11.36;50.19
2675;BME280;1347;42.122;24.746;2023-02-19T05:20:27;99802.38;;;11.47;49.99
2675;BME280;1347;42.122;24.746;2023-02-19T05:22:54;99802.97;;;11.60;49.80
2675;BME280;1347;42.122;24.746;2023-02-19T05:25:21;99793.78;;;11.75;48.97
2675;BME280;1347;42.122;24.746;2023-02-19T05:27:49;99788.44;;;11.86;49.05
2675;BME280;1347;42.122;24.746;2023-02-19T05:30:36;99799.16;;;11.94;48.79
2675;BME280;1347;42.122;24.746;2023-02-19T05:33:03;99798.94;;;12.06;48.24
2675;BME280;1347;42.122;24.746;2023-02-19T05:35:30;99797.91;;;12.18;47.96
2675;BME280;1347;42.122;24.746;2023-02-19T05:37:57;99810.22;;;12.28;47.99
2675;BME280;1347;42.122;24.746;2023-02-19T05:40:24;99805.16;;;12.33;47.36
2675;BME280;1347;42.122;24.746;2023-02-19T05:42:52;99804.50;;;12.43;47.48
2675;BME280;1347;42.122;24.746;2023-02-19T05:45:19;99816.47;;;12.58;47.43
2675;BME280;1347;42.122;24.746;2023-02-19T05:47:46;99795.00;;;12.71;47.06
2675;BME280;1347;42.122;24.746;2023-02-19T05:50:13;99806.91;;;12.82;46.44
2675;BME280;1347;42.122;24.746;2023-02-19T05:52:39;99825.94;;;12.98;45.67
2675;BME280;1347;42.122;24.746;2023-02-19T05:55:08;99822.13;;;13.09;45.47
2675;BME280;1347;42.122;24.746;2023-02-19T05:57:39;99831.72;;;13.26;45.28
2675;BME280;1347;42.122;24.746;2023-02-19T06:00:10;99833.78;;;13.36;45.07
2675;BME280;1347;42.122;24.746;2023-02-19T06:02:37;99835.13;;;13.53;44.81
2675;BME280;1347;42.122;24.746;2023-02-19T06:05:05;99849.44;;;13.76;44.35
2675;BME280;1347;42.122;24.746;2023-02-19T06:07:32;99854.34;;;14.00;43.55
2675;BME280;1347;42.122;24.746;2023-02-19T06:09:59;99860.78;;;14.22;43.33
2675;BME280;1347;42.122;24.746;2023-02-19T06:12:26;99860.13;;;14.43;43.22
2675;BME280;1347;42.122;24.746;2023-02-19T06:14:53;99872.88;;;14.72;42.88
2675;BME280;1347;42.122;24.746;2023-02-19T06:17:21;99879.25;;;14.91;41.98
2675;BME280;1347;42.122;24.746;2023-02-19T06:19:48;99879.72;;;15.14;41.97
2675;BME280;1347;42.122;24.746;2023-02-19T06:22:16;99872.63;;;15.24;41.40
2675;BME280;1347;42.122;24.746;2023-02-19T06:24:42;99879.75;;;15.42;41.63
2675;BME280;1347;42.122;24.746;2023-02-19T06:27:10;99886.13;;;15.57;40.98
2675;BME280;1347;42.122;24.746;2023-02-19T06:29:37;99881.38;;;15.86;40.90
2675;BME280;1347;42.122;24.746;2023-02-19T06:32:05;99885.25;;;16.20;39.92
2675;BME280;1347;42.122;24.746;2023-02-19T06:34:33;99893.91;;;16.40;39.66
2675;BME280;1347;42.122;24.746;2023-02-19T06:37:01;99880.50;;;16.35;39.67
2675;BME280;1347;42.122;24.746;2023-02-19T06:39:28;99894.38;;;16.14;39.88
2675;BME280;1347;42.122;24.746;2023-02-19T06:41:55;99897.53;;;16.05;40.13
2675;BME280;1347;42.122;24.746;2023-02-19T06:44:22;99888.06;;;16.06;40.39
2675;BME280;1347;42.122;24.746;2023-02-19T06:46:49;99908.22;;;15.82;40.55
2675;BME280;1347;42.122;24.746;2023-02-19T06:49:16;99901.13;;;15.67;40.88
2675;BME280;1347;42.122;24.746;2023-02-19T06:51:44;99894.00;;;15.76;40.56
2675;BME280;1347;42.122;24.746;2023-02-19T06:54:11;99902.31;;;15.87;40.34
2675;BME280;1347;42.122;24.746;2023-02-19T06:56:39;99904.66;;;15.85;40.36
2675;BME280;1347;42.122;24.746;2023-02-19T06:59:08;99916.91;;;16.02;40.33
2675;BME280;1347;42.122;24.746;2023-02-19T07:01:36;99910.94;;;16.25;40.21
2675;BME280;1347;42.122;24.746;2023-02-19T07:04:03;99910.53;;;16.33;40.05
2675;BME280;1347;42.122;24.746;2023-02-19T07:06:31;99911.25;;;16.66;39.44
2675;BME280;1347;42.122;24.746;2023-02-19T07:09:00;99905.72;;;16.62;39.27
2675;BME280;1347;42.122;24.746;2023-02-19T07:11:29;99913.38;;;17.24;38.72
2675;BME280;1347;42.122;24.746;2023-02-19T07:13:57;99906.34;;;18.16;37.46
2675;BME280;1347;42.122;24.746;2023-02-19T07:16:25;99916.56;;;18.97;35.87
2675;BME280;1347;42.122;24.746;2023-02-19T07:18:52;99909.94;;;19.45;35.10
2675;BME280;1347;42.122;24.746;2023-02-19T07:21:21;99910.94;;;20.32;33.77
2675;BME280;1347;42.122;24.746;2023-02-19T07:23:48;99917.66;;;22.01;32.10
2675;BME280;1347;42.122;24.746;2023-02-19T07:26:18;99912.56;;;22.58;31.32
2675;BME280;1347;42.122;24.746;2023-02-19T07:28:46;99912.03;;;24.31;29.85
2675;BME280;1347;42.122;24.746;2023-02-19T07:31:18;99909.25;;;26.17;27.80
2675;BME280;1347;42.122;24.746;2023-02-19T07:33:45;99917.47;;;27.72;26.09
2675;BME280;1347;42.122;24.746;2023-02-19T07:36:13;99908.50;;;27.40;25.93
2675;BME280;1347;42.122;24.746;2023-02-19T07:38:41;99899.66;;;25.78;27.23
2675;BME280;1347;42.122;24.746;2023-02-19T07:41:08;99904.53;;;25.55;27.41
2675;BME280;1347;42.122;24.746;2023-02-19T07:43:37;99893.78;;;25.94;27.23
2675;BME280;1347;42.122;24.746;2023-02-19T07:46:06;99906.28;;;26.11;26.87
2675;BME280;1347;42.122;24.746;2023-02-19T07:48:33;99892.88;;;25.26;27.55
2675;BME280;1347;42.122;24.746;2023-02-19T07:51:02;99912.81;;;24.32;28.94
2675;BME280;1347;42.122;24.746;2023-02-19T07:53:29;99908.53;;;24.27;28.84
2675;BME280;1347;42.122;24.746;2023-02-19T07:55:58;99904.78;;;23.96;29.02
2675;BME280;1347;42.122;24.746;2023-02-19T07:58:26;99905.88;;;23.51;29.57
2675;BME280;1347;42.122;24.746;2023-02-19T08:00:54;99900.34;;;23.47;29.92
2675;BME280;1347;42.122;24.746;2023-02-19T08:03:21;99910.94;;;22.73;30.43
2675;BME280;1347;42.122;24.746;2023-02-19T08:05:48;99905.47;;;22.69;30.63
2675;BME280;1347;42.122;24.746;2023-02-19T08:08:18;99915.50;;;22.96;30.63
2675;BME280;1347;42.122;24.746;2023-02-19T08:10:45;99913.84;;;23.11;30.36
2675;BME280;1347;42.122;24.746;2023-02-19T08:13:30;99909.16;;;23.97;29.65
2675;BME280;1347;42.122;24.746;2023-02-19T08:16:10;99921.84;;;25.14;28.48
2675;BME280;1347;42.122;24.746;2023-02-19T08:18:38;99899.44;;;26.85;27.68
2675;BME280;1347;42.122;24.746;2023-02-19T08:21:05;99900.56;;;27.30;26.51
2675;BME280;1347;42.122;24.746;2023-02-19T08:23:31;99898.06;;;27.74;26.14
2675;BME280;1347;42.122;24.746;2023-02-19T08:26:00;99899.97;;;28.25;25.76
2675;BME280;1347;42.122;24.746;2023-02-19T08:28:27;99902.69;;;28.34;26.10
2675;BME280;1347;42.122;24.746;2023-02-19T08:31:00;99895.13;;;30.27;24.62
2675;BME280;1347;42.122;24.746;2023-02-19T08:33:29;99889.19;;;31.92;23.00
2675;BME280;1347;42.122;24.746;2023-02-19T08:36:00;99883.97;;;34.17;21.76
2675;BME280;1347;42.122;24.746;2023-02-19T08:38:29;99889.25;;;33.74;21.64
2675;BME280;1347;42.122;24.746;2023-02-19T08:40:56;99888.75;;;32.92;21.86
2675;BME280;1347;42.122;24.746;2023-02-19T08:43:23;99889.91;;;34.19;21.42
2675;BME280;1347;42.122;24.746;2023-02-19T08:45:52;99880.09;;;34.14;21.16
2675;BME280;1347;42.122;24.746;2023-02-19T08:48:19;99883.03;;;36.05;20.69
2675;BME280;1347;42.122;24.746;2023-02-19T08:50:54;99887.75;;;36.64;19.69
2675;BME280;1347;42.122;24.746;2023-02-19T08:53:21;99872.69;;;35.29;20.62
2675;BME280;1347;42.122;24.746;2023-02-19T08:55:48;99884.03;;;37.91;19.19
2675;BME280;1347;42.122;24.746;2023-02-19T08:58:15;99882.41;;;38.90;18.89
2675;BME280;1347;42.122;24.746;2023-02-19T09:00:42;99877.06;;;38.40;19.06
2675;BME280;1347;42.122;24.746;2023-02-19T09:03:09;99867.03;;;38.80;18.62
2675;BME280;1347;42.122;24.746;2023-02-19T09:05:37;99871.47;;;39.44;18.21
2675;BME280;1347;42.122;24.746;2023-02-19T09:08:05;99867.47;;;37.32;19.57
2675;BME280;1347;42.122;24.746;2023-02-19T09:10:32;99849.41;;;36.92;19.01
2675;BME280;1347;42.122;24.746;2023-02-19T09:12:59;99856.28;;;38.26;18.59
2675;BME280;1347;42.122;24.746;2023-02-19T09:15:27;99847.59;;;33.98;21.01
2675;BME280;1347;42.122;24.746;2023-02-19T09:17:54;99842.91;;;35.24;20.86
2675;BME280;1347;42.122;24.746;2023-02-19T09:20:21;99848.16;;;33.80;21.34
2675;BME280;1347;42.122;24.746;2023-02-19T09:22:48;99842.13;;;34.94;20.72
2675;BME280;1347;42.122;24.746;2023-02-19T09:25:16;99837.47;;;34.03;21.50
2675;BME280;1347;42.122;24.746;2023-02-19T09:27:43;99834.91;;;34.00;21.15
2675;BME280;1347;42.122;24.746;2023-02-19T09:30:10;99833.91;;;35.69;20.73
2675;BME280;1347;42.122;24.746;2023-02-19T09:32:37;99836.72;;;36.74;20.27
2675;BME280;1347;42.122;24.746;2023-02-19T09:35:05;99821.25;;;36.96;19.66
2675;BME280;1347;42.122;24.746;2023-02-19T09:37:32;99822.84;;;37.55;19.55
2675;BME280;1347;42.122;24.746;2023-02-19T09:39:59;99823.00;;;34.89;20.58
2675;BME280;1347;42.122;24.746;2023-02-19T09:42:28;99822.81;;;35.41;20.17
2675;BME280;1347;42.122;24.746;2023-02-19T09:44:57;99811.41;;;37.68;19.61
2675;BME280;1347;42.122;24.746;2023-02-19T09:47:26;99811.44;;;35.60;20.45
2675;BME280;1347;42.122;24.746;2023-02-19T09:49:55;99807.06;;;36.58;19.25
2675;BME280;1347;42.122;24.746;2023-02-19T09:52:30;99795.03;;;36.46;19.92
2675;BME280;1347;42.122;24.746;2023-02-19T09:55:00;99797.38;;;35.13;20.80
2675;BME280;1347;42.122;24.746;2023-02-19T09:57:32;99801.66;;;33.61;21.23
2675;BME280;1347;42.122;24.746;2023-02-19T10:00:04;99786.34;;;34.33;21.40
2675;BME280;1347;42.122;24.746;2023-02-19T10:02:31;99781.91;;;35.57;20.20
2675;BME280;1347;42.122;24.746;2023-02-19T10:04:58;99787.75;;;36.96;19.96
2675;BME280;1347;42.122;24.746;2023-02-19T10:07:34;99776.41;;;36.59;19.32
2675;BME280;1347;42.122;24.746;2023-02-19T10:10:24;99779.16;;;33.63;20.90
2675;BME280;1347;42.122;24.746;2023-02-19T10:12:55;99772.59;;;31.30;22.32
2675;BME280;1347;42.122;24.746;2023-02-19T10:15:29;99766.09;;;32.43;21.98
2675;BME280;1347;42.122;24.746;2023-02-19T10:17:57;99759.44;;;33.87;21.09
2675;BME280;1347;42.122;24.746;2023-02-19T10:20:25;99767.38;;;32.25;22.20
2675;BME280;1347;42.122;24.746;2023-02-19T10:22:59;99749.19;;;33.62;21.32
2675;BME280;1347;42.122;24.746;2023-02-19T10:25:27;99745.78;;;33.75;21.00
2675;BME280;1347;42.122;24.746;2023-02-19T10:27:58;99740.22;;;33.41;21.30
2675;BME280;1347;42.122;24.746;2023-02-19T10:30:29;99753.28;;;33.78;21.37
2675;BME280;1347;42.122;24.746;2023-02-19T10:32:59;99737.13;;;34.44;21.28
2675;BME280;1347;42.122;24.746;2023-02-19T10:35:27;99745.63;;;34.08;20.59
2675;BME280;1347;42.122;24.746;2023-02-19T10:37:54;99729.72;;;32.97;21.41
2675;BME280;1347;42.122;24.746;2023-02-19T10:40:24;99724.03;;;32.25;21.94
2675;BME280;1347;42.122;24.746;2023-02-19T10:42:55;99729.75;;;32.75;22.03
2675;BME280;1347;42.122;24.746;2023-02-19T10:45:29;99719.84;;;33.20;21.25
2675;BME280;1347;42.122;24.746;2023-02-19T10:47:58;99715.00;;;31.44;22.33
2675;BME280;1347;42.122;24.746;2023-02-19T10:50:29;99703.91;;;32.23;22.13
2675;BME280;1347;42.122;24.746;2023-02-19T10:52:58;99692.16;;;31.65;22.45
2675;BME280;1347;42.122;24.746;2023-02-19T10:55:31;99682.41;;;31.18;22.76
2675;BME280;1347;42.122;24.746;2023-02-19T10:58:19;99680.56;;;30.41;23.29
2675;BME280;1347;42.122;24.746;2023-02-19T11:01:09;99679.50;;;30.69;23.13
2675;BME280;1347;42.122;24.746;2023-02-19T11:03:36;99657.88;;;30.35;23.13
2675;BME280;1347;42.122;24.746;2023-02-19T11:06:04;99657.66;;;29.87;23.44
2675;BME280;1347;42.122;24.746;2023-02-19T11:08:45;99650.66;;;29.36;23.81
2675;BME280;1347;42.122;24.746;2023-02-19T11:11:22;99656.22;;;29.71;24.17
2675;BME280;1347;42.122;24.746;2023-02-19T11:13:50;99654.13;;;29.92;24.12
2675;BME280;1347;42.122;24.746;2023-02-19T11:16:18;99646.31;;;30.07;23.47
2675;BME280;1347;42.122;24.746;2023-02-19T11:18:52;99642.63;;;29.95;23.92
2675;BME280;1347;42.122;24.746;2023-02-19T11:21:25;99642.94;;;30.03;23.39
2675;BME280;1347;42.122;24.746;2023-02-19T11:23:58;99645.47;;;29.75;23.53
2675;BME280;1347;42.122;24.746;2023-02-19T11:26:26;99643.94;;;29.13;24.56
2675;BME280;1347;42.122;24.746;2023-02-19T11:28:57;99640.50;;;29.04;24.79
2675;BME280;1347;42.122;24.746;2023-02-19T11:31:27;99638.03;;;28.76;24.91
2675;BME280;1347;42.122;24.746;2023-02-19T11:33:57;99630.13;;;28.95;25.17
2675;BME280;1347;42.122;24.746;2023-02-19T11:36:28;99626.66;;;28.71;24.72
2675;BME280;1347;42.122;24.746;2023-02-19T11:38:56;99617.38;;;28.50;25.22
2675;BME280;1347;42.122;24.746;2023-02-19T11:41:58;99620.72;;;28.34;25.19
2675;BME280;1347;42.122;24.746;2023-02-19T11:44:37;99621.13;;;27.68;25.30
2675;BME280;1347;42.122;24.746;2023-02-19T11:47:29;99616.69;;;27.52;25.35
2675;BME280;1347;42.122;24.746;2023-02-19T11:50:11;99614.06;;;26.86;26.32
2675;BME280;1347;42.122;24.746;2023-02-19T11:52:47;99606.78;;;26.70;26.60
2675;BME280;1347;42.122;24.746;2023-02-19T11:55:24;99599.09;;;26.47;26.63
2675;BME280;1347;42.122;24.746;2023-02-19T11:58:10;99593.34;;;25.99;27.20
2675;BME280;1347;42.122;24.746;2023-02-19T12:00:46;99598.41;;;26.28;26.70
2675;BME280;1347;42.122;24.746;2023-02-19T12:03:47;99589.44;;;27.20;26.61
2675;BME280;1347;42.122;24.746;2023-02-19T12:06:23;99578.81;;;29.17;24.88
2675;BME280;1347;42.122;24.746;2023-02-19T12:09:12;99571.34;;;30.54;23.59
2675;BME280;1347;42.122;24.746;2023-02-19T12:12:20;99567.31;;;31.26;23.08
2675;BME280;1347;42.122;24.746;2023-02-19T12:15:20;99581.16;;;32.22;22.19
2675;BME280;1347;42.122;24.746;2023-02-19T12:18:14;99572.31;;;33.69;21.45
2675;BME280;1347;42.122;24.746;2023-02-19T12:20:56;99564.41;;;34.22;20.72
2675;BME280;1347;42.122;24.746;2023-02-19T12:24:03;99563.97;;;33.88;21.35
2675;BME280;1347;42.122;24.746;2023-02-19T12:26:41;99555.56;;;31.66;22.77
2675;BME280;1347;42.122;24.746;2023-02-19T12:29:26;99554.66;;;30.56;22.91
2675;BME280;1347;42.122;24.746;2023-02-19T12:35:39;99538.84;;;30.44;23.08
2675;BME280;1347;42.122;24.746;2023-02-19T12:38:20;99532.34;;;31.51;22.90
2675;BME280;1347;42.122;24.746;2023-02-19T12:41:09;99534.97;;;32.16;22.25
2675;BME280;1347;42.122;24.746;2023-02-19T12:43:45;99526.97;;;30.77;23.17
2675;BME280;1347;42.122;24.746;2023-02-19T12:46:19;99517.69;;;32.20;22.25
2675;BME280;1347;42.122;24.746;2023-02-19T12:48:50;99521.97;;;32.76;21.79
2675;BME280;1347;42.122;24.746;2023-02-19T12:51:24;99512.25;;;33.07;21.64
2675;BME280;1347;42.122;24.746;2023-02-19T12:53:57;99501.63;;;33.13;21.55
2675;BME280;1347;42.122;24.746;2023-02-19T12:56:29;99500.66;;;33.05;21.70
2675;BME280;1347;42.122;24.746;2023-02-19T12:59:02;99496.81;;;33.44;21.39
2675;BME280;1347;42.122;24.746;2023-02-19T13:01:34;99491.00;;;30.83;22.77
2675;BME280;1347;42.122;24.746;2023-02-19T13:04:24;99482.38;;;30.13;24.18
2675;BME280;1347;42.122;24.746;2023-02-19T13:06:56;99491.44;;;31.80;22.89
2675;BME280;1347;42.122;24.746;2023-02-19T13:09:29;99482.44;;;32.78;22.19
2675;BME280;1347;42.122;24.746;2023-02-19T13:12:02;99474.63;;;31.37;22.63
2675;BME280;1347;42.122;24.746;2023-02-19T13:14:34;99472.09;;;31.84;22.54
2675;BME280;1347;42.122;24.746;2023-02-19T13:17:14;99467.69;;;31.22;22.77
2675;BME280;1347;42.122;24.746;2023-02-19T13:19:44;99471.56;;;31.41;22.52
2675;BME280;1347;42.122;24.746;2023-02-19T13:22:18;99459.44;;;31.57;22.67
2675;BME280;1347;42.122;24.746;2023-02-19T13:25:08;99467.19;;;31.68;22.47
2675;BME280;1347;42.122;24.746;2023-02-19T13:27:46;99451.34;;;30.83;22.82
2675;BME280;1347;42.122;24.746;2023-02-19T13:30:32;99447.06;;;29.97;23.62
2675;BME280;1347;42.122;24.746;2023-02-19T13:33:17;99438.59;;;29.97;23.88
2675;BME280;1347;42.122;24.746;2023-02-19T13:36:02;99436.19;;;29.53;24.49